sensor_id;sensor_type;location;lat;lon;timestamp;temperature;humidity
13817;DHT22;6979;52.116;5.286;2022-08-21T00:01:24;19.50;99.90
13817;DHT22;6979;52.116;5.286;2022-08-21T00:03:53;19.50;99.90
13817;DHT22;6979;52.116;5.286;2022-08-21T00:06:21;19.50;99.90
13817;DHT22;6979;52.116;5.286;2022-08-21T00:08:49;19.50;99.90
13817;DHT22;6979;52.116;5.286;2022-08-21T00:11:16;19.40;99.90
13817;DHT22;6979;52.116;5.286;2022-08-21T00:13:43;19.40;99.90
13817;DHT22;6979;52.116;5.286;2022-08-21T00:16:10;19.40;99.90
13817;DHT22;6979;52.116;5.286;2022-08-21T00:18:37;19.40;99.90
13817;DHT22;6979;52.116;5.286;2022-08-21T00:21:05;19.40;99.90
13817;DHT22;6979;52.116;5.286;2022-08-21T00:23:33;19.40;99.90
13817;DHT22;6979;52.116;5.286;2022-08-21T00:26:00;19.40;99.90
13817;DHT22;6979;52.116;5.286;2022-08-21T00:28:27;19.40;99.90
13817;DHT22;6979;52.116;5.286;2022-08-21T00:30:54;19.30;99.90
13817;DHT22;6979;52.116;5.286;2022-08-21T00:33:22;19.30;99.90
13817;DHT22;6979;52.116;5.286;2022-08-21T00:35:49;19.30;99.90
13817;DHT22;6979;52.116;5.286;2022-08-21T00:38:18;19.30;99.90
13817;DHT22;6979;52.116;5.286;2022-08-21T00:40:47;19.30;99.90
13817;DHT22;6979;52.116;5.286;2022-08-21T00:43:17;19.30;99.90
13817;DHT22;6979;52.116;5.286;2022-08-21T00:45:44;19.30;99.90
13817;DHT22;6979;52.116;5.286;2022-08-21T00:48:11;19.20;99.90
13817;DHT22;6979;52.116;5.286;2022-08-21T00:50:42;19.20;99.90
13817;DHT22;6979;52.116;5.286;2022-08-21T00:53:10;19.20;99.90
13817;DHT22;6979;52.116;5.286;2022-08-21T00:55:41;19.20;99.90
13817;DHT22;6979;52.116;5.286;2022-08-21T00:58:09;19.20;99.90
13817;DHT22;6979;52.116;5.286;2022-08-21T01:00:39;19.20;99.90
13817;DHT22;6979;52.116;5.286;2022-08-21T01:03:10;19.20;99.90
13817;DHT22;6979;52.116;5.286;2022-08-21T01:05:38;19.20;99.90
13817;DHT22;6979;52.116;5.286;2022-08-21T01:08:06;19.20;99.90
13817;DHT22;6979;52.116;5.286;2022-08-21T01:10:33;19.10;99.90
13817;DHT22;6979;52.116;5.286;2022-08-21T01:13:03;19.10;99.90
13817;DHT22;6979;52.116;5.286;2022-08-21T01:15:33;19.10;99.90
13817;DHT22;6979;52.116;5.286;2022-08-21T01:18:01;19.10;99.90
13817;DHT22;6979;52.116;5.286;2022-08-21T01:20:28;19.10;99.90
13817;DHT22;6979;52.116;5.286;2022-08-21T01:22:56;19.10;99.90
13817;DHT22;6979;52.116;5.286;2022-08-21T01:25:23;19.10;99.90
13817;DHT22;6979;52.116;5.286;2022-08-21T01:27:50;19.10;99.90
13817;DHT22;6979;52.116;5.286;2022-08-21T01:30:19;19.10;99.90
13817;DHT22;6979;52.116;5.286;2022-08-21T01:32:48;19.10;99.90
13817;DHT22;6979;52.116;5.286;2022-08-21T01:35:17;19.10;99.90
13817;DHT22;6979;52.116;5.286;2022-08-21T01:37:45;19.00;99.90
13817;DHT22;6979;52.116;5.286;2022-08-21T01:40:15;19.00;99.90
13817;DHT22;6979;52.116;5.286;2022-08-21T01:42:43;19.00;99.90
13817;DHT22;6979;52.116;5.286;2022-08-21T01:45:10;19.00;99.90
13817;DHT22;6979;52.116;5.286;2022-08-21T01:47:38;19.00;99.90
13817;DHT22;6979;52.116;5.286;2022-08-21T01:50:07;19.00;99.90
13817;DHT22;6979;52.116;5.286;2022-08-21T01:52:34;19.00;99.90
13817;DHT22;6979;52.116;5.286;2022-08-21T01:55:01;19.00;99.90
13817;DHT22;6979;52.116;5.286;2022-08-21T01:57:29;18.90;99.90
13817;DHT22;6979;52.116;5.286;2022-08-21T01:59:56;18.90;99.90
13817;DHT22;6979;52.116;5.286;2022-08-21T02:02:22;18.90;99.90
13817;DHT22;6979;52.116;5.286;2022-08-21T02:04:49;18.90;99.90
13817;DHT22;6979;52.116;5.286;2022-08-21T02:07:16;18.90;99.90
13817;DHT22;6979;52.116;5.286;2022-08-21T02:09:44;18.90;99.90
13817;DHT22;6979;52.116;5.286;2022-08-21T02:12:11;18.80;99.90
13817;DHT22;6979;52.116;5.286;2022-08-21T02:14:39;18.80;99.90
13817;DHT22;6979;52.116;5.286;2022-08-21T02:17:06;18.80;99.90
13817;DHT22;6979;52.116;5.286;2022-08-21T02:19:33;18.80;99.90
13817;DHT22;6979;52.116;5.286;2022-08-21T02:22:00;18.80;99.90
13817;DHT22;6979;52.116;5.286;2022-08-21T02:24:26;18.70;99.90
13817;DHT22;6979;52.116;5.286;2022-08-21T02:26:53;18.70;99.90
13817;DHT22;6979;52.116;5.286;2022-08-21T02:29:20;18.70;99.90
13817;DHT22;6979;52.116;5.286;2022-08-21T02:31:48;18.70;99.90
13817;DHT22;6979;52.116;5.286;2022-08-21T02:34:15;18.70;99.90
13817;DHT22;6979;52.116;5.286;2022-08-21T02:36:42;18.70;99.90
13817;DHT22;6979;52.116;5.286;2022-08-21T02:39:08;18.60;99.90
13817;DHT22;6979;52.116;5.286;2022-08-21T02:41:35;18.60;99.90
13817;DHT22;6979;52.116;5.286;2022-08-21T02:44:02;18.60;99.90
13817;DHT22;6979;52.116;5.286;2022-08-21T02:46:29;18.60;99.90
13817;DHT22;6979;52.116;5.286;2022-08-21T02:48:58;18.60;99.90
13817;DHT22;6979;52.116;5.286;2022-08-21T02:51:24;18.50;99.90
13817;DHT22;6979;52.116;5.286;2022-08-21T02:53:51;18.60;99.90
13817;DHT22;6979;52.116;5.286;2022-08-21T02:56:20;18.60;99.90
13817;DHT22;6979;52.116;5.286;2022-08-21T02:58:49;18.50;99.90
13817;DHT22;6979;52.116;5.286;2022-08-21T03:01:17;18.50;99.90
13817;DHT22;6979;52.116;5.286;2022-08-21T03:03:46;18.50;99.90
13817;DHT22;6979;52.116;5.286;2022-08-21T03:06:17;18.50;99.90
13817;DHT22;6979;52.116;5.286;2022-08-21T03:08:45;18.50;99.90
13817;DHT22;6979;52.116;5.286;2022-08-21T03:11:13;18.50;99.90
13817;DHT22;6979;52.116;5.286;2022-08-21T03:13:40;18.40;99.90
13817;DHT22;6979;52.116;5.286;2022-08-21T03:16:08;18.40;99.90
13817;DHT22;6979;52.116;5.286;2022-08-21T03:18:35;18.40;99.90
13817;DHT22;6979;52.116;5.286;2022-08-21T03:21:02;18.40;99.90
13817;DHT22;6979;52.116;5.286;2022-08-21T03:23:30;18.30;99.90
13817;DHT22;6979;52.116;5.286;2022-08-21T03:25:58;18.30;99.90
13817;DHT22;6979;52.116;5.286;2022-08-21T03:28:25;18.30;99.90
13817;DHT22;6979;52.116;5.286;2022-08-21T03:30:52;18.30;99.90
13817;DHT22;6979;52.116;5.286;2022-08-21T03:33:19;18.30;99.90
13817;DHT22;6979;52.116;5.286;2022-08-21T03:35:49;18.20;99.90
13817;DHT22;6979;52.116;5.286;2022-08-21T03:38:17;18.20;99.90
13817;DHT22;6979;52.116;5.286;2022-08-21T03:40:46;18.20;99.90
13817;DHT22;6979;52.116;5.286;2022-08-21T03:43:13;18.20;99.90
13817;DHT22;6979;52.116;5.286;2022-08-21T03:45:40;18.20;99.90
13817;DHT22;6979;52.116;5.286;2022-08-21T03:48:07;18.20;99.90
13817;DHT22;6979;52.116;5.286;2022-08-21T03:50:38;18.20;99.90
13817;DHT22;6979;52.116;5.286;2022-08-21T03:53:05;18.20;99.90
13817;DHT22;6979;52.116;5.286;2022-08-21T03:55:32;18.20;99.90
13817;DHT22;6979;52.116;5.286;2022-08-21T03:58:00;18.10;99.90
13817;DHT22;6979;52.116;5.286;2022-08-21T04:00:27;18.20;99.90
13817;DHT22;6979;52.116;5.286;2022-08-21T04:02:55;18.20;99.90
13817;DHT22;6979;52.116;5.286;2022-08-21T04:05:22;18.20;99.90
13817;DHT22;6979;52.116;5.286;2022-08-21T04:07:55;18.20;99.90
13817;DHT22;6979;52.116;5.286;2022-08-21T04:10:23;18.20;99.90
13817;DHT22;6979;52.116;5.286;2022-08-21T04:12:51;18.10;99.90
13817;DHT22;6979;52.116;5.286;2022-08-21T04:15:20;18.20;99.90
13817;DHT22;6979;52.116;5.286;2022-08-21T04:17:47;18.10;99.90
13817;DHT22;6979;52.116;5.286;2022-08-21T04:20:15;18.10;99.90
13817;DHT22;6979;52.116;5.286;2022-08-21T04:22:42;18.10;99.90
13817;DHT22;6979;52.116;5.286;2022-08-21T04:25:10;18.10;99.90
13817;DHT22;6979;52.116;5.286;2022-08-21T04:27:37;18.10;99.90
13817;DHT22;6979;52.116;5.286;2022-08-21T04:30:05;18.10;99.90
13817;DHT22;6979;52.116;5.286;2022-08-21T04:32:34;18.00;99.90
13817;DHT22;6979;52.116;5.286;2022-08-21T04:35:04;18.00;99.90
13817;DHT22;6979;52.116;5.286;2022-08-21T04:37:32;18.00;99.90
13817;DHT22;6979;52.116;5.286;2022-08-21T04:39:59;18.00;99.90
13817;DHT22;6979;52.116;5.286;2022-08-21T04:42:27;17.90;99.90
13817;DHT22;6979;52.116;5.286;2022-08-21T04:44:54;17.90;99.90
13817;DHT22;6979;52.116;5.286;2022-08-21T04:47:22;17.90;99.90
13817;DHT22;6979;52.116;5.286;2022-08-21T04:49:50;17.90;99.90
13817;DHT22;6979;52.116;5.286;2022-08-21T04:52:20;17.90;99.90
13817;DHT22;6979;52.116;5.286;2022-08-21T04:54:48;17.80;99.90
13817;DHT22;6979;52.116;5.286;2022-08-21T04:57:17;17.90;99.90
13817;DHT22;6979;52.116;5.286;2022-08-21T04:59:48;17.90;99.90
13817;DHT22;6979;52.116;5.286;2022-08-21T05:02:15;17.80;99.90
13817;DHT22;6979;52.116;5.286;2022-08-21T05:04:45;17.80;99.90
13817;DHT22;6979;52.116;5.286;2022-08-21T05:07:19;17.80;99.90
13817;DHT22;6979;52.116;5.286;2022-08-21T05:09:46;17.80;99.90
13817;DHT22;6979;52.116;5.286;2022-08-21T05:12:13;17.70;99.90
13817;DHT22;6979;52.116;5.286;2022-08-21T05:14:40;17.70;99.90
13817;DHT22;6979;52.116;5.286;2022-08-21T05:17:07;17.70;99.90
13817;DHT22;6979;52.116;5.286;2022-08-21T05:19:34;17.70;99.90
13817;DHT22;6979;52.116;5.286;2022-08-21T05:22:01;17.80;99.90
13817;DHT22;6979;52.116;5.286;2022-08-21T05:24:30;17.80;99.90
13817;DHT22;6979;52.116;5.286;2022-08-21T05:26:56;17.80;99.90
13817;DHT22;6979;52.116;5.286;2022-08-21T05:29:24;17.80;99.90
13817;DHT22;6979;52.116;5.286;2022-08-21T05:31:51;17.80;99.90
13817;DHT22;6979;52.116;5.286;2022-08-21T05:34:20;17.80;99.90
13817;DHT22;6979;52.116;5.286;2022-08-21T05:36:47;17.90;99.90
13817;DHT22;6979;52.116;5.286;2022-08-21T05:39:14;17.90;99.90
13817;DHT22;6979;52.116;5.286;2022-08-21T05:41:42;17.90;99.90
13817;DHT22;6979;52.116;5.286;2022-08-21T05:44:09;17.90;99.90
13817;DHT22;6979;52.116;5.286;2022-08-21T05:46:36;17.90;99.90
13817;DHT22;6979;52.116;5.286;2022-08-21T05:49:02;17.90;99.90
13817;DHT22;6979;52.116;5.286;2022-08-21T05:51:30;17.90;99.90
13817;DHT22;6979;52.116;5.286;2022-08-21T05:53:57;18.00;99.90
13817;DHT22;6979;52.116;5.286;2022-08-21T05:56:24;18.00;99.90
13817;DHT22;6979;52.116;5.286;2022-08-21T05:58:52;18.10;99.90
13817;DHT22;6979;52.116;5.286;2022-08-21T06:01:19;18.10;99.90
13817;DHT22;6979;52.116;5.286;2022-08-21T06:03:45;18.10;99.90
13817;DHT22;6979;52.116;5.286;2022-08-21T06:06:12;18.20;99.90
13817;DHT22;6979;52.116;5.286;2022-08-21T06:08:39;18.20;99.90
13817;DHT22;6979;52.116;5.286;2022-08-21T06:11:06;18.30;99.90
13817;DHT22;6979;52.116;5.286;2022-08-21T06:13:33;18.30;99.90
13817;DHT22;6979;52.116;5.286;2022-08-21T06:16:04;18.40;99.90
13817;DHT22;6979;52.116;5.286;2022-08-21T06:18:32;18.40;99.90
13817;DHT22;6979;52.116;5.286;2022-08-21T06:20:59;18.40;99.90
13817;DHT22;6979;52.116;5.286;2022-08-21T06:23:26;18.50;99.90
13817;DHT22;6979;52.116;5.286;2022-08-21T06:25:53;18.60;99.90
13817;DHT22;6979;52.116;5.286;2022-08-21T06:28:20;18.60;99.90
13817;DHT22;6979;52.116;5.286;2022-08-21T06:30:46;18.70;99.90
13817;DHT22;6979;52.116;5.286;2022-08-21T06:33:15;18.80;99.90
13817;DHT22;6979;52.116;5.286;2022-08-21T06:35:41;18.80;99.90
13817;DHT22;6979;52.116;5.286;2022-08-21T06:38:08;18.90;99.90
13817;DHT22;6979;52.116;5.286;2022-08-21T06:40:36;19.00;99.90
13817;DHT22;6979;52.116;5.286;2022-08-21T06:43:08;19.10;99.90
13817;DHT22;6979;52.116;5.286;2022-08-21T06:45:36;19.10;99.90
13817;DHT22;6979;52.116;5.286;2022-08-21T06:48:03;19.20;99.90
13817;DHT22;6979;52.116;5.286;2022-08-21T06:50:32;19.30;99.90
13817;DHT22;6979;52.116;5.286;2022-08-21T06:53:01;19.40;99.90
13817;DHT22;6979;52.116;5.286;2022-08-21T06:55:28;19.50;99.90
13817;DHT22;6979;52.116;5.286;2022-08-21T06:57:54;19.60;99.90
13817;DHT22;6979;52.116;5.286;2022-08-21T07:00:21;19.60;99.90
13817;DHT22;6979;52.116;5.286;2022-08-21T07:02:48;19.70;99.90
13817;DHT22;6979;52.116;5.286;2022-08-21T07:05:15;19.80;99.90
13817;DHT22;6979;52.116;5.286;2022-08-21T07:07:44;19.90;99.90
13817;DHT22;6979;52.116;5.286;2022-08-21T07:10:11;20.00;99.90
13817;DHT22;6979;52.116;5.286;2022-08-21T07:12:38;20.10;99.90
13817;DHT22;6979;52.116;5.286;2022-08-21T07:15:06;20.20;99.90
13817;DHT22;6979;52.116;5.286;2022-08-21T07:17:33;20.30;99.90
13817;DHT22;6979;52.116;5.286;2022-08-21T07:20:00;20.40;99.90
13817;DHT22;6979;52.116;5.286;2022-08-21T07:22:27;20.50;99.90
13817;DHT22;6979;52.116;5.286;2022-08-21T07:24:55;20.60;99.90
13817;DHT22;6979;52.116;5.286;2022-08-21T07:27:22;20.60;99.90
13817;DHT22;6979;52.116;5.286;2022-08-21T07:29:48;20.70;99.90
13817;DHT22;6979;52.116;5.286;2022-08-21T07:32:15;20.80;99.90
13817;DHT22;6979;52.116;5.286;2022-08-21T07:34:42;20.90;99.90
13817;DHT22;6979;52.116;5.286;2022-08-21T07:37:10;21.00;99.90
13817;DHT22;6979;52.116;5.286;2022-08-21T07:39:37;21.10;99.90
13817;DHT22;6979;52.116;5.286;2022-08-21T07:42:06;21.10;99.90
13817;DHT22;6979;52.116;5.286;2022-08-21T07:44:33;21.20;99.90
13817;DHT22;6979;52.116;5.286;2022-08-21T07:47:00;21.30;99.90
13817;DHT22;6979;52.116;5.286;2022-08-21T07:49:27;21.40;99.90
13817;DHT22;6979;52.116;5.286;2022-08-21T07:51:54;21.50;99.90
13817;DHT22;6979;52.116;5.286;2022-08-21T07:54:22;21.50;99.90
13817;DHT22;6979;52.116;5.286;2022-08-21T07:56:48;21.60;99.90
13817;DHT22;6979;52.116;5.286;2022-08-21T07:59:16;21.70;99.90
13817;DHT22;6979;52.116;5.286;2022-08-21T08:01:43;21.80;99.90
13817;DHT22;6979;52.116;5.286;2022-08-21T08:04:10;21.80;99.90
13817;DHT22;6979;52.116;5.286;2022-08-21T08:06:37;21.90;99.90
13817;DHT22;6979;52.116;5.286;2022-08-21T08:09:04;22.00;99.90
13817;DHT22;6979;52.116;5.286;2022-08-21T08:11:31;22.10;99.90
13817;DHT22;6979;52.116;5.286;2022-08-21T08:13:58;22.10;99.90
13817;DHT22;6979;52.116;5.286;2022-08-21T08:16:26;22.20;99.90
13817;DHT22;6979;52.116;5.286;2022-08-21T08:18:53;22.30;99.90
13817;DHT22;6979;52.116;5.286;2022-08-21T08:21:21;22.30;99.90
13817;DHT22;6979;52.116;5.286;2022-08-21T08:23:48;22.40;99.90
13817;DHT22;6979;52.116;5.286;2022-08-21T08:26:15;22.50;99.90
13817;DHT22;6979;52.116;5.286;2022-08-21T08:28:42;22.50;99.90
13817;DHT22;6979;52.116;5.286;2022-08-21T08:31:09;22.60;99.90
13817;DHT22;6979;52.116;5.286;2022-08-21T08:33:37;22.70;99.90
13817;DHT22;6979;52.116;5.286;2022-08-21T08:36:05;22.80;99.90
13817;DHT22;6979;52.116;5.286;2022-08-21T08:38:38;22.90;99.90
13817;DHT22;6979;52.116;5.286;2022-08-21T08:41:11;23.00;99.90
13817;DHT22;6979;52.116;5.286;2022-08-21T08:43:40;23.10;99.90
13817;DHT22;6979;52.116;5.286;2022-08-21T08:46:13;23.20;99.90
13817;DHT22;6979;52.116;5.286;2022-08-21T08:48:52;23.30;99.90
13817;DHT22;6979;52.116;5.286;2022-08-21T08:51:23;23.50;99.90
13817;DHT22;6979;52.116;5.286;2022-08-21T08:53:54;23.60;99.90
13817;DHT22;6979;52.116;5.286;2022-08-21T08:56:28;23.70;99.90
13817;DHT22;6979;52.116;5.286;2022-08-21T08:58:59;23.80;99.90
13817;DHT22;6979;52.116;5.286;2022-08-21T09:01:27;23.90;99.90
13817;DHT22;6979;52.116;5.286;2022-08-21T09:03:56;24.00;99.90
13817;DHT22;6979;52.116;5.286;2022-08-21T09:06:34;24.20;99.90
13817;DHT22;6979;52.116;5.286;2022-08-21T09:09:15;24.30;99.90
13817;DHT22;6979;52.116;5.286;2022-08-21T09:11:52;24.50;99.90
13817;DHT22;6979;52.116;5.286;2022-08-21T09:14:28;24.70;99.90
13817;DHT22;6979;52.116;5.286;2022-08-21T09:17:08;25.00;99.90
13817;DHT22;6979;52.116;5.286;2022-08-21T09:19:47;25.20;99.90
13817;DHT22;6979;52.116;5.286;2022-08-21T09:22:23;25.50;99.90
13817;DHT22;6979;52.116;5.286;2022-08-21T09:24:58;25.80;99.90
13817;DHT22;6979;52.116;5.286;2022-08-21T09:27:29;26.00;99.90
13817;DHT22;6979;52.116;5.286;2022-08-21T09:29:56;26.20;99.90
13817;DHT22;6979;52.116;5.286;2022-08-21T09:32:26;26.30;99.90
13817;DHT22;6979;52.116;5.286;2022-08-21T09:35:01;26.30;99.90
13817;DHT22;6979;52.116;5.286;2022-08-21T09:37:31;26.40;99.90
13817;DHT22;6979;52.116;5.286;2022-08-21T09:39:59;26.40;99.90
13817;DHT22;6979;52.116;5.286;2022-08-21T09:42:28;26.40;99.90
13817;DHT22;6979;52.116;5.286;2022-08-21T09:45:11;26.50;99.90
13817;DHT22;6979;52.116;5.286;2022-08-21T09:47:39;26.60;99.90
13817;DHT22;6979;52.116;5.286;2022-08-21T09:50:15;26.70;99.90
13817;DHT22;6979;52.116;5.286;2022-08-21T09:52:45;26.80;99.90
13817;DHT22;6979;52.116;5.286;2022-08-21T09:55:18;26.90;99.90
13817;DHT22;6979;52.116;5.286;2022-08-21T09:57:59;27.10;99.90
13817;DHT22;6979;52.116;5.286;2022-08-21T10:00:29;27.20;99.90
13817;DHT22;6979;52.116;5.286;2022-08-21T10:03:08;27.30;99.90
13817;DHT22;6979;52.116;5.286;2022-08-21T10:05:37;27.30;99.90
13817;DHT22;6979;52.116;5.286;2022-08-21T10:08:04;27.40;99.90
13817;DHT22;6979;52.116;5.286;2022-08-21T10:10:36;27.50;99.90
13817;DHT22;6979;52.116;5.286;2022-08-21T10:13:07;27.80;99.90
13817;DHT22;6979;52.116;5.286;2022-08-21T10:15:46;28.00;99.90
13817;DHT22;6979;52.116;5.286;2022-08-21T10:18:20;28.30;99.30
13817;DHT22;6979;52.116;5.286;2022-08-21T10:20:52;28.50;98.70
13817;DHT22;6979;52.116;5.286;2022-08-21T10:23:34;28.70;97.50
13817;DHT22;6979;52.116;5.286;2022-08-21T10:26:08;28.90;95.50
13817;DHT22;6979;52.116;5.286;2022-08-21T10:28:42;29.00;95.50
13817;DHT22;6979;52.116;5.286;2022-08-21T10:31:16;29.00;94.20
13817;DHT22;6979;52.116;5.286;2022-08-21T10:33:51;29.00;93.80
13817;DHT22;6979;52.116;5.286;2022-08-21T10:36:25;28.90;93.60
13817;DHT22;6979;52.116;5.286;2022-08-21T10:39:02;28.80;94.30
13817;DHT22;6979;52.116;5.286;2022-08-21T10:41:46;28.80;93.80
13817;DHT22;6979;52.116;5.286;2022-08-21T10:44:24;28.90;92.90
13817;DHT22;6979;52.116;5.286;2022-08-21T10:46:56;29.00;93.40
13817;DHT22;6979;52.116;5.286;2022-08-21T10:49:31;29.10;94.30
13817;DHT22;6979;52.116;5.286;2022-08-21T10:52:22;29.30;93.30
13817;DHT22;6979;52.116;5.286;2022-08-21T10:54:56;29.50;93.20
13817;DHT22;6979;52.116;5.286;2022-08-21T10:57:32;29.80;92.70
13817;DHT22;6979;52.116;5.286;2022-08-21T11:00:05;29.90;92.00
13817;DHT22;6979;52.116;5.286;2022-08-21T11:02:38;30.00;92.00
13817;DHT22;6979;52.116;5.286;2022-08-21T11:05:11;30.10;90.90
13817;DHT22;6979;52.116;5.286;2022-08-21T11:07:45;30.20;88.10
13817;DHT22;6979;52.116;5.286;2022-08-21T11:10:18;30.30;88.50
13817;DHT22;6979;52.116;5.286;2022-08-21T11:12:52;30.30;88.00
13817;DHT22;6979;52.116;5.286;2022-08-21T11:15:31;30.20;88.20
13817;DHT22;6979;52.116;5.286;2022-08-21T11:18:09;30.20;87.10
13817;DHT22;6979;52.116;5.286;2022-08-21T11:20:42;30.00;88.50
13817;DHT22;6979;52.116;5.286;2022-08-21T11:23:16;30.00;88.60
13817;DHT22;6979;52.116;5.286;2022-08-21T11:25:49;30.10;89.80
13817;DHT22;6979;52.116;5.286;2022-08-21T11:28:21;30.20;86.50
13817;DHT22;6979;52.116;5.286;2022-08-21T11:31:06;30.20;86.80
13817;DHT22;6979;52.116;5.286;2022-08-21T11:33:50;30.10;86.70
13817;DHT22;6979;52.116;5.286;2022-08-21T11:36:26;30.00;87.70
13817;DHT22;6979;52.116;5.286;2022-08-21T11:39:02;29.90;87.10
13817;DHT22;6979;52.116;5.286;2022-08-21T11:41:32;29.90;87.40
13817;DHT22;6979;52.116;5.286;2022-08-21T11:44:10;29.80;88.80
13817;DHT22;6979;52.116;5.286;2022-08-21T11:46:48;29.70;89.10
13817;DHT22;6979;52.116;5.286;2022-08-21T11:49:30;29.60;89.50
13817;DHT22;6979;52.116;5.286;2022-08-21T11:52:05;29.50;90.00
13817;DHT22;6979;52.116;5.286;2022-08-21T11:54:39;29.50;90.00
13817;DHT22;6979;52.116;5.286;2022-08-21T11:57:13;29.40;89.40
13817;DHT22;6979;52.116;5.286;2022-08-21T11:59:47;29.20;90.20
13817;DHT22;6979;52.116;5.286;2022-08-21T12:02:19;29.10;90.80
13817;DHT22;6979;52.116;5.286;2022-08-21T12:04:49;29.10;91.80
13817;DHT22;6979;52.116;5.286;2022-08-21T12:07:31;29.20;92.30
13817;DHT22;6979;52.116;5.286;2022-08-21T12:10:01;29.30;91.50
13817;DHT22;6979;52.116;5.286;2022-08-21T12:12:30;29.50;90.60
13817;DHT22;6979;52.116;5.286;2022-08-21T12:15:25;29.50;89.60
13817;DHT22;6979;52.116;5.286;2022-08-21T12:17:55;29.60;90.00
13817;DHT22;6979;52.116;5.286;2022-08-21T12:20:33;29.80;90.50
13817;DHT22;6979;52.116;5.286;2022-08-21T12:23:05;29.80;89.10
13817;DHT22;6979;52.116;5.286;2022-08-21T12:25:39;29.90;88.20
13817;DHT22;6979;52.116;5.286;2022-08-21T12:28:08;30.00;88.60
13817;DHT22;6979;52.116;5.286;2022-08-21T12:30:39;30.20;88.40
13817;DHT22;6979;52.116;5.286;2022-08-21T12:33:20;30.30;86.40
13817;DHT22;6979;52.116;5.286;2022-08-21T12:35:49;30.40;85.50
13817;DHT22;6979;52.116;5.286;2022-08-21T12:38:20;30.40;85.80
13817;DHT22;6979;52.116;5.286;2022-08-21T12:40:52;30.40;85.00
13817;DHT22;6979;52.116;5.286;2022-08-21T12:43:25;30.50;84.70
13817;DHT22;6979;52.116;5.286;2022-08-21T12:45:54;30.50;84.80
13817;DHT22;6979;52.116;5.286;2022-08-21T12:48:26;30.60;84.30
13817;DHT22;6979;52.116;5.286;2022-08-21T12:50:57;30.70;84.90
13817;DHT22;6979;52.116;5.286;2022-08-21T12:53:28;30.90;85.40
13817;DHT22;6979;52.116;5.286;2022-08-21T12:56:01;31.10;84.70
13817;DHT22;6979;52.116;5.286;2022-08-21T12:58:29;31.20;85.10
13817;DHT22;6979;52.116;5.286;2022-08-21T13:01:01;31.50;86.10
13817;DHT22;6979;52.116;5.286;2022-08-21T13:03:28;31.70;85.40
13817;DHT22;6979;52.116;5.286;2022-08-21T13:05:57;31.80;84.30
13817;DHT22;6979;52.116;5.286;2022-08-21T13:08:26;32.00;83.00
13817;DHT22;6979;52.116;5.286;2022-08-21T13:11:04;32.00;82.10
13817;DHT22;6979;52.116;5.286;2022-08-21T13:13:33;32.00;80.40
13817;DHT22;6979;52.116;5.286;2022-08-21T13:16:02;31.80;79.90
13817;DHT22;6979;52.116;5.286;2022-08-21T13:18:33;31.60;80.20
13817;DHT22;6979;52.116;5.286;2022-08-21T13:21:05;31.40;80.70
13817;DHT22;6979;52.116;5.286;2022-08-21T13:23:33;31.10;81.80
13817;DHT22;6979;52.116;5.286;2022-08-21T13:26:01;31.00;81.80
13817;DHT22;6979;52.116;5.286;2022-08-21T13:28:37;30.90;82.60
13817;DHT22;6979;52.116;5.286;2022-08-21T13:31:07;30.90;83.50
13817;DHT22;6979;52.116;5.286;2022-08-21T13:33:37;31.00;83.60
13817;DHT22;6979;52.116;5.286;2022-08-21T13:36:09;31.10;84.70
13817;DHT22;6979;52.116;5.286;2022-08-21T13:38:39;31.20;83.40
13817;DHT22;6979;52.116;5.286;2022-08-21T13:41:16;31.30;83.40
13817;DHT22;6979;52.116;5.286;2022-08-21T13:43:49;31.40;82.90
13817;DHT22;6979;52.116;5.286;2022-08-21T13:46:18;31.50;83.00
13817;DHT22;6979;52.116;5.286;2022-08-21T13:48:48;31.50;82.60
13817;DHT22;6979;52.116;5.286;2022-08-21T13:51:14;31.50;82.10
13817;DHT22;6979;52.116;5.286;2022-08-21T13:53:46;31.50;81.80
13817;DHT22;6979;52.116;5.286;2022-08-21T13:56:24;31.40;81.30
13817;DHT22;6979;52.116;5.286;2022-08-21T13:58:53;31.30;81.30
13817;DHT22;6979;52.116;5.286;2022-08-21T14:01:22;31.20;82.00
13817;DHT22;6979;52.116;5.286;2022-08-21T14:03:53;31.10;81.60
13817;DHT22;6979;52.116;5.286;2022-08-21T14:06:22;30.90;81.80
13817;DHT22;6979;52.116;5.286;2022-08-21T14:08:52;30.80;82.30
13817;DHT22;6979;52.116;5.286;2022-08-21T14:11:21;30.70;82.40
13817;DHT22;6979;52.116;5.286;2022-08-21T14:13:55;30.50;82.90
13817;DHT22;6979;52.116;5.286;2022-08-21T14:16:24;30.40;83.50
13817;DHT22;6979;52.116;5.286;2022-08-21T14:18:55;30.40;83.80
13817;DHT22;6979;52.116;5.286;2022-08-21T14:21:35;30.30;83.00
13817;DHT22;6979;52.116;5.286;2022-08-21T14:24:07;30.20;82.70
13817;DHT22;6979;52.116;5.286;2022-08-21T14:26:37;30.10;83.20
13817;DHT22;6979;52.116;5.286;2022-08-21T14:29:11;30.00;83.50
13817;DHT22;6979;52.116;5.286;2022-08-21T14:31:39;29.90;83.50
13817;DHT22;6979;52.116;5.286;2022-08-21T14:34:10;29.80;83.50
13817;DHT22;6979;52.116;5.286;2022-08-21T14:36:37;29.70;83.80
13817;DHT22;6979;52.116;5.286;2022-08-21T14:39:04;29.60;83.80
13817;DHT22;6979;52.116;5.286;2022-08-21T14:41:31;29.50;84.30
13817;DHT22;6979;52.116;5.286;2022-08-21T14:43:57;29.40;84.90
13817;DHT22;6979;52.116;5.286;2022-08-21T14:46:28;29.30;85.20
13817;DHT22;6979;52.116;5.286;2022-08-21T14:48:55;29.30;85.40
13817;DHT22;6979;52.116;5.286;2022-08-21T14:51:22;29.20;85.60
13817;DHT22;6979;52.116;5.286;2022-08-21T14:53:50;29.20;85.50
13817;DHT22;6979;52.116;5.286;2022-08-21T14:56:17;29.10;85.20
13817;DHT22;6979;52.116;5.286;2022-08-21T14:58:47;29.10;85.80
13817;DHT22;6979;52.116;5.286;2022-08-21T15:01:16;29.00;85.70
13817;DHT22;6979;52.116;5.286;2022-08-21T15:03:45;29.00;85.80
13817;DHT22;6979;52.116;5.286;2022-08-21T15:06:15;29.00;85.90
13817;DHT22;6979;52.116;5.286;2022-08-21T15:08:43;28.90;85.90
13817;DHT22;6979;52.116;5.286;2022-08-21T15:11:11;28.80;85.80
13817;DHT22;6979;52.116;5.286;2022-08-21T15:13:39;28.80;85.80
13817;DHT22;6979;52.116;5.286;2022-08-21T15:16:09;28.70;85.80
13817;DHT22;6979;52.116;5.286;2022-08-21T15:18:36;28.70;85.30
13817;DHT22;6979;52.116;5.286;2022-08-21T15:21:05;28.60;84.50
13817;DHT22;6979;52.116;5.286;2022-08-21T15:23:32;28.60;83.50
13817;DHT22;6979;52.116;5.286;2022-08-21T15:25:59;28.50;83.00
13817;DHT22;6979;52.116;5.286;2022-08-21T15:28:26;28.40;82.70
13817;DHT22;6979;52.116;5.286;2022-08-21T15:30:52;28.30;83.00
13817;DHT22;6979;52.116;5.286;2022-08-21T15:33:19;28.20;83.10
13817;DHT22;6979;52.116;5.286;2022-08-21T15:35:47;28.10;83.30
13817;DHT22;6979;52.116;5.286;2022-08-21T15:38:15;28.10;83.80
13817;DHT22;6979;52.116;5.286;2022-08-21T15:40:42;28.10;84.70
13817;DHT22;6979;52.116;5.286;2022-08-21T15:43:20;28.00;85.10
13817;DHT22;6979;52.116;5.286;2022-08-21T15:45:47;28.00;85.70
13817;DHT22;6979;52.116;5.286;2022-08-21T15:48:14;27.90;86.40
13817;DHT22;6979;52.116;5.286;2022-08-21T15:50:41;27.90;87.10
13817;DHT22;6979;52.116;5.286;2022-08-21T15:53:09;27.80;87.50
13817;DHT22;6979;52.116;5.286;2022-08-21T15:55:37;27.80;88.00
13817;DHT22;6979;52.116;5.286;2022-08-21T15:58:04;27.80;88.10
13817;DHT22;6979;52.116;5.286;2022-08-21T16:00:34;27.80;88.50